Time;durP1;ratioP1;P1;durP2;ratioP2;P2;SDS_P1;SDS_P2;PMS_P1;PMS_P2;Temp;Humidity;BMP_temperature;BMP_pressure;BME280_temperature;BME280_humidity;BME280_pressure;Samples;Min_cycle;Max_cycle;Signal;HPM_P1;HPM_P2
2021/06/18 00:00:50;;;;;;;3.45;3.00;;;24.10;53.60;;;;;;5012525;28;20400;-60
2021/06/18 00:03:15;;;;;;;3.37;2.67;;;24.10;53.40;;;;;;5012527;28;20484;-60
2021/06/18 00:05:41;;;;;;;3.00;2.65;;;24.10;53.60;;;;;;5012208;28;20420;-60
2021/06/18 00:08:07;;;;;;;3.00;2.70;;;24.10;53.50;;;;;;5012115;28;20488;-59
2021/06/18 00:10:32;;;;;;;3.30;2.80;;;24.10;53.60;;;;;;5012319;28;20447;-60
2021/06/18 00:12:58;;;;;;;3.07;2.77;;;24.10;53.50;;;;;;5012325;28;20389;-60
2021/06/18 00:15:24;;;;;;;3.10;2.80;;;24.10;53.50;;;;;;5012296;28;20865;-60
2021/06/18 00:17:50;;;;;;;3.40;3.10;;;24.10;53.60;;;;;;5011890;28;20480;-60
2021/06/18 00:20:16;;;;;;;3.90;2.85;;;24.10;53.50;;;;;;5012286;28;20746;-60
2021/06/18 00:22:43;;;;;;;3.78;2.90;;;24.10;53.60;;;;;;5012239;28;20865;-60
2021/06/18 00:25:10;;;;;;;3.38;2.90;;;24.10;53.50;;;;;;5012191;28;20400;-60
2021/06/18 00:27:36;;;;;;;3.20;2.90;;;24.10;53.60;;;;;;5011961;28;20785;-60
2021/06/18 00:30:04;;;;;;;3.22;2.92;;;24.10;53.50;;;;;;5011542;28;20956;-60
2021/06/18 00:32:30;;;;;;;3.22;2.92;;;24.10;53.50;;;;;;5011771;28;20458;-60
2021/06/18 00:34:55;;;;;;;3.27;2.97;;;24.10;53.50;;;;;;5011052;28;20385;-60
2021/06/18 00:37:21;;;;;;;3.40;2.90;;;24.10;53.50;;;;;;5010230;28;20467;-60
2021/06/18 00:39:46;;;;;;;3.00;2.70;;;24.00;53.40;;;;;;5011340;28;20389;-60
2021/06/18 00:42:12;;;;;;;3.70;3.10;;;24.10;53.50;;;;;;5011683;28;20468;-60
2021/06/18 00:44:38;;;;;;;3.63;3.30;;;24.00;53.50;;;;;;5011415;28;20423;-61
2021/06/18 00:47:04;;;;;;;3.20;2.90;;;24.00;53.50;;;;;;5011497;28;20428;-60
2021/06/18 00:49:30;;;;;;;3.25;2.90;;;24.00;53.50;;;;;;5011118;28;20889;-59
2021/06/18 00:51:57;;;;;;;3.40;3.10;;;24.00;53.50;;;;;;5010985;28;20443;-60
2021/06/18 00:54:29;;;;;;;3.20;2.90;;;24.00;53.50;;;;;;5011808;28;20396;-60
2021/06/18 00:57:00;;;;;;;3.40;3.10;;;24.00;53.50;;;;;;5012048;28;20444;-61
2021/06/18 00:59:26;;;;;;;3.38;2.80;;;24.00;53.50;;;;;;5011371;28;20496;-60
2021/06/18 01:01:52;;;;;;;3.22;2.92;;;24.00;53.50;;;;;;5011425;28;20392;-60
2021/06/18 01:04:20;;;;;;;3.27;2.97;;;24.00;53.50;;;;;;5011580;28;20479;-60
2021/06/18 01:06:53;;;;;;;3.20;2.90;;;24.00;53.50;;;;;;5011674;28;20494;-60
2021/06/18 01:09:20;;;;;;;3.50;3.20;;;24.00;53.50;;;;;;5011822;28;20499;-60
2021/06/18 01:12:01;;;;;;;3.22;2.88;;;24.00;53.50;;;;;;5011352;28;20996;-60
2021/06/18 01:14:47;;;;;;;3.20;2.90;;;23.90;53.50;;;;;;5011469;28;20792;-60
2021/06/18 01:17:53;;;;;;;3.28;2.90;;;24.00;53.40;;;;;;5011562;28;20400;-60
2021/06/18 01:20:43;;;;;;;3.07;2.77;;;23.90;53.50;;;;;;5010957;28;20416;-60
2021/06/18 01:23:40;;;;;;;3.40;3.10;;;24.00;53.50;;;;;;5011517;28;20441;-60
2021/06/18 01:26:32;;;;;;;3.55;2.90;;;23.90;53.30;;;;;;5011287;28;20424;-60
2021/06/18 01:29:01;;;;;;;3.50;3.20;;;23.90;53.50;;;;;;5011420;28;20412;-60
2021/06/18 01:31:31;;;;;;;3.28;2.95;;;23.90;53.40;;;;;;5011144;28;20389;-60
2021/06/18 01:34:06;;;;;;;3.60;3.30;;;23.90;53.40;;;;;;5010978;28;20400;-60
2021/06/18 01:36:33;;;;;;;3.50;2.90;;;23.90;53.40;;;;;;5011335;28;20427;-60
2021/06/18 01:39:00;;;;;;;3.20;2.88;;;23.90;53.40;;;;;;5011369;28;20397;-60
2021/06/18 01:41:29;;;;;;;3.78;3.00;;;23.90;53.50;;;;;;5011330;28;20395;-59
2021/06/18 01:43:55;;;;;;;3.33;3.03;;;23.90;53.40;;;;;;5010936;28;20389;-60
2021/06/18 01:46:26;;;;;;;3.37;2.97;;;23.90;53.50;;;;;;5013698;28;20501;-60
2021/06/18 01:49:00;;;;;;;3.10;2.78;;;23.90;53.40;;;;;;5014790;28;20412;-59
2021/06/18 01:51:27;;;;;;;3.30;3.00;;;23.90;53.40;;;;;;5014385;28;20453;-60
2021/06/18 01:53:56;;;;;;;3.30;3.00;;;23.90;53.40;;;;;;5014587;28;20392;-60
2021/06/18 01:56:22;;;;;;;3.20;2.75;;;23.90;53.40;;;;;;5014745;28;20421;-60
2021/06/18 01:58:51;;;;;;;3.50;3.20;;;23.90;53.40;;;;;;5014773;28;20869;-60
2021/06/18 02:01:19;;;;;;;3.70;3.00;;;23.90;53.40;;;;;;5014706;28;20400;-60
2021/06/18 02:03:46;;;;;;;3.25;2.80;;;23.90;53.40;;;;;;5014468;28;20396;-60
2021/06/18 02:06:13;;;;;;;3.05;2.75;;;23.90;53.40;;;;;;5013630;28;20760;-60
2021/06/18 02:08:41;;;;;;;3.30;3.00;;;23.90;53.40;;;;;;5014518;28;20503;-60
2021/06/18 02:11:08;;;;;;;3.20;2.90;;;23.90;53.50;;;;;;5014624;28;20900;-60
2021/06/18 02:13:34;;;;;;;3.38;2.67;;;23.80;53.50;;;;;;5014602;28;20401;-61
2021/06/18 02:16:01;;;;;;;3.10;2.80;;;23.80;53.50;;;;;;5014048;28;20400;-60
2021/06/18 02:18:31;;;;;;;3.85;3.13;;;23.90;53.40;;;;;;5014488;28;20396;-60
2021/06/18 02:20:58;;;;;;;3.22;2.92;;;23.80;53.30;;;;;;5014412;28;20377;-60
2021/06/18 02:23:27;;;;;;;2.80;2.60;;;23.80;53.40;;;;;;5013121;28;20392;-60
2021/06/18 02:25:53;;;;;;;2.85;2.65;;;23.80;53.30;;;;;;5014119;28;20480;-60
2021/06/18 02:28:21;;;;;;;3.42;3.10;;;23.80;53.40;;;;;;5013999;28;20516;-60
2021/06/18 02:30:47;;;;;;;3.33;3.03;;;23.80;53.40;;;;;;5014264;28;20455;-60
2021/06/18 02:33:13;;;;;;;3.50;3.20;;;23.80;53.40;;;;;;5014095;28;20400;-60
2021/06/18 02:35:43;;;;;;;3.35;3.05;;;23.80;53.40;;;;;;5014118;28;20411;-60
2021/06/18 02:38:10;;;;;;;3.20;2.90;;;23.80;53.40;;;;;;5013943;28;20426;-60
2021/06/18 02:40:37;;;;;;;3.40;3.10;;;23.80;53.40;;;;;;5013994;28;20432;-60
2021/06/18 02:43:04;;;;;;;3.53;3.22;;;23.80;53.50;;;;;;5013732;28;20388;-60
2021/06/18 02:45:30;;;;;;;3.30;3.00;;;23.80;53.40;;;;;;5013717;28;20420;-60
2021/06/18 02:48:00;;;;;;;3.22;2.92;;;23.80;53.50;;;;;;5013395;28;20417;-60
2021/06/18 02:50:44;;;;;;;3.20;2.90;;;23.80;53.40;;;;;;5013696;28;20388;-60
2021/06/18 02:53:47;;;;;;;3.35;3.05;;;23.80;53.40;;;;;;5013882;28;20932;-60
2021/06/18 02:56:21;;;;;;;3.30;3.00;;;23.80;53.40;;;;;;5013053;28;20792;-60
2021/06/18 02:58:56;;;;;;;3.28;2.97;;;23.80;53.40;;;;;;5013715;28;20443;-61
2021/06/18 03:01:27;;;;;;;3.40;2.92;;;23.80;53.50;;;;;;5013526;28;20471;-60
2021/06/18 03:03:57;;;;;;;3.28;2.97;;;23.80;53.50;;;;;;5013228;28;20765;-60
2021/06/18 03:06:23;;;;;;;3.33;2.90;;;23.70;53.50;;;;;;5012904;28;20758;-60
2021/06/18 03:08:57;;;;;;;3.13;2.83;;;23.80;53.50;;;;;;5012843;28;20478;-59
2021/06/18 03:11:27;;;;;;;3.90;2.80;;;23.70;53.60;;;;;;5013496;28;20386;-60
2021/06/18 03:13:55;;;;;;;3.10;2.80;;;23.70;53.50;;;;;;5013064;28;20449;-59
2021/06/18 03:16:22;;;;;;;4.63;3.30;;;23.80;53.70;;;;;;5013074;28;20783;-60
2021/06/18 03:18:50;;;;;;;4.18;3.38;;;23.80;54.70;;;;;;5013454;28;20393;-60
2021/06/18 03:21:16;;;;;;;4.25;3.53;;;23.80;54.30;;;;;;5012408;28;20389;-60
2021/06/18 03:23:45;;;;;;;6.53;4.00;;;23.80;55.40;;;;;;5012105;28;20868;-59
2021/06/18 03:26:11;;;;;;;5.88;4.20;;;23.80;54.90;;;;;;5012579;28;20393;-60
2021/06/18 03:28:38;;;;;;;11.88;4.72;;;23.80;55.20;;;;;;5013139;28;20424;-65
2021/06/18 03:31:07;;;;;;;8.02;4.60;;;23.80;54.80;;;;;;5015506;28;20431;-61
2021/06/18 03:33:34;;;;;;;5.38;4.30;;;23.80;54.60;;;;;;5012835;28;20385;-60
2021/06/18 03:36:00;;;;;;;5.95;4.20;;;23.80;54.20;;;;;;5012658;28;20403;-59
2021/06/18 03:38:27;;;;;;;8.48;4.60;;;23.80;55.20;;;;;;5012740;28;20396;-59
2021/06/18 03:40:53;;;;;;;6.63;4.53;;;23.80;54.80;;;;;;5012816;28;20397;-59
2021/06/18 03:43:19;;;;;;;5.22;4.63;;;23.80;55.00;;;;;;5012715;28;20381;-59
2021/06/18 03:45:48;;;;;;;5.85;4.47;;;23.80;54.90;;;;;;5012651;28;20900;-59
2021/06/18 03:48:16;;;;;;;4.90;4.40;;;23.80;54.80;;;;;;5011422;28;21143;-59
2021/06/18 03:50:42;;;;;;;7.35;4.53;;;23.80;55.80;;;;;;5011343;28;20385;-59
2021/06/18 03:53:09;;;;;;;7.67;4.33;;;23.80;55.30;;;;;;5012675;28;20473;-59
2021/06/18 03:55:35;;;;;;;6.78;4.72;;;23.80;54.90;;;;;;5011709;28;20381;-59
2021/06/18 03:58:03;;;;;;;5.50;4.25;;;23.80;55.10;;;;;;5011841;28;20400;-59
2021/06/18 04:00:36;;;;;;;7.28;4.22;;;23.70;54.70;;;;;;5012576;28;20385;-60
2021/06/18 04:03:02;;;;;;;5.22;4.25;;;23.80;55.10;;;;;;5011078;28;20408;-60
2021/06/18 04:05:30;;;;;;;9.55;4.50;;;23.80;55.10;;;;;;5012182;28;20411;-60
2021/06/18 04:07:57;;;;;;;8.30;4.50;;;23.80;55.10;;;;;;5011461;28;20405;-60
2021/06/18 04:10:24;;;;;;;5.47;4.25;;;23.80;56.00;;;;;;5012075;28;20424;-60
2021/06/18 04:12:51;;;;;;;4.88;4.20;;;23.80;55.30;;;;;;5010629;28;20925;-60
2021/06/18 04:15:19;;;;;;;5.20;4.10;;;23.80;55.40;;;;;;5012096;28;20544;-60
2021/06/18 04:17:45;;;;;;;4.82;4.00;;;23.80;55.20;;;;;;5012179;28;20393;-60
2021/06/18 04:20:12;;;;;;;3.95;3.60;;;23.80;55.70;;;;;;5011468;28;20416;-60
2021/06/18 04:22:37;;;;;;;4.10;3.70;;;23.80;54.50;;;;;;5011196;28;20385;-60
2021/06/18 04:25:05;;;;;;;7.13;4.30;;;23.80;54.30;;;;;;5012041;28;20397;-60
2021/06/18 04:27:32;;;;;;;4.85;3.92;;;23.80;54.50;;;;;;5011718;28;20421;-60
2021/06/18 04:29:58;;;;;;;6.20;3.80;;;23.80;54.40;;;;;;5011816;28;20849;-60
2021/06/18 04:32:23;;;;;;;5.53;3.60;;;23.80;54.60;;;;;;5011569;28;20389;-60
2021/06/18 04:34:49;;;;;;;4.28;3.50;;;23.80;54.20;;;;;;5012018;28;20393;-66
2021/06/18 04:37:15;;;;;;;4.78;3.58;;;23.80;54.00;;;;;;5011099;28;20404;-60
2021/06/18 04:39:41;;;;;;;3.30;3.00;;;23.80;53.90;;;;;;5011980;28;20389;-60
2021/06/18 04:42:07;;;;;;;4.53;3.30;;;23.80;53.80;;;;;;5011410;28;20476;-60
2021/06/18 04:44:32;;;;;;;4.23;3.70;;;23.80;53.80;;;;;;5011619;28;20409;-60
2021/06/18 04:46:58;;;;;;;4.65;3.58;;;23.80;53.70;;;;;;5012144;28;20766;-60
2021/06/18 04:49:24;;;;;;;4.77;3.70;;;23.80;53.80;;;;;;5011891;28;21020;-60
2021/06/18 04:51:50;;;;;;;4.30;3.90;;;23.80;53.90;;;;;;5011626;28;20631;-60
2021/06/18 04:54:15;;;;;;;4.10;3.70;;;23.80;53.80;;;;;;5011276;28;20400;-60
2021/06/18 04:56:41;;;;;;;4.00;3.60;;;23.80;53.90;;;;;;5011637;28;20401;-60
2021/06/18 04:59:07;;;;;;;4.65;3.55;;;23.80;54.20;;;;;;5011858;28;20400;-60
2021/06/18 05:01:33;;;;;;;5.53;3.70;;;23.80;54.10;;;;;;5013584;28;20408;-60
2021/06/18 05:03:59;;;;;;;5.05;3.40;;;23.80;54.00;;;;;;5009653;28;20397;-60
2021/06/18 05:06:25;;;;;;;7.68;4.10;;;23.80;54.50;;;;;;5009567;28;20392;-60
2021/06/18 05:08:52;;;;;;;7.67;4.00;;;23.80;54.80;;;;;;5010347;28;20975;-60
2021/06/18 05:11:22;;;;;;;8.07;3.63;;;23.80;55.10;;;;;;5011208;28;20385;-60
2021/06/18 05:13:47;;;;;;;5.95;3.70;;;23.80;55.00;;;;;;5011568;28;20404;-60
2021/06/18 05:16:13;;;;;;;4.70;3.40;;;23.80;55.00;;;;;;5010943;28;20764;-60
2021/06/18 05:18:39;;;;;;;5.60;3.67;;;23.90;55.10;;;;;;5011142;28;20451;-60
2021/06/18 05:21:04;;;;;;;5.23;3.90;;;23.90;55.00;;;;;;5013880;28;20405;-60
2021/06/18 05:23:30;;;;;;;5.85;3.42;;;23.90;54.90;;;;;;5015498;28;20404;-60
2021/06/18 05:25:56;;;;;;;5.50;3.70;;;23.90;54.80;;;;;;5015159;28;20392;-60
2021/06/18 05:28:21;;;;;;;4.57;3.42;;;23.90;54.70;;;;;;5015007;28;20417;-60
2021/06/18 05:30:47;;;;;;;4.40;3.50;;;23.90;54.70;;;;;;5015333;28;20392;-60
2021/06/18 05:33:13;;;;;;;4.30;3.47;;;23.90;54.40;;;;;;5015319;28;20871;-60
2021/06/18 05:35:42;;;;;;;5.30;3.37;;;23.90;54.40;;;;;;5015081;28;20385;-60
2021/06/18 05:38:07;;;;;;;5.88;3.38;;;23.90;54.30;;;;;;5014195;28;20393;-60
2021/06/18 05:40:33;;;;;;;6.53;3.63;;;23.90;54.30;;;;;;5014418;28;20393;-60
2021/06/18 05:42:59;;;;;;;4.90;3.40;;;23.90;54.40;;;;;;5014565;28;20392;-59
2021/06/18 05:45:24;;;;;;;5.80;3.50;;;23.90;54.60;;;;;;5014858;28;20413;-59
2021/06/18 05:47:50;;;;;;;8.00;3.70;;;23.90;54.60;;;;;;5014966;28;20420;-59
2021/06/18 05:50:15;;;;;;;9.17;3.90;;;23.90;54.60;;;;;;5014464;28;20881;-60
2021/06/18 05:52:41;;;;;;;9.03;3.83;;;23.90;55.40;;;;;;5014388;28;20400;-60
2021/06/18 05:55:07;;;;;;;10.07;4.30;;;23.90;55.60;;;;;;5014990;28;20389;-60
2021/06/18 05:57:33;;;;;;;9.05;3.50;;;24.00;55.90;;;;;;5014473;28;20400;-59
2021/06/18 05:59:59;;;;;;;11.00;4.03;;;24.00;55.70;;;;;;5014553;28;20932;-60
2021/06/18 06:02:25;;;;;;;8.60;3.72;;;24.00;56.20;;;;;;5013645;28;20411;-60
2021/06/18 06:04:50;;;;;;;9.27;4.28;;;24.00;55.50;;;;;;5013879;28;20433;-60
2021/06/18 06:07:16;;;;;;;7.77;3.63;;;24.00;55.60;;;;;;5014050;28;20824;-60
2021/06/18 06:09:42;;;;;;;6.35;3.47;;;24.00;55.50;;;;;;5014422;28;20404;-59
2021/06/18 06:12:08;;;;;;;7.50;3.60;;;24.00;55.40;;;;;;5014470;28;20381;-60
2021/06/18 06:14:34;;;;;;;10.30;4.20;;;24.00;55.10;;;;;;5014510;28;20407;-60
2021/06/18 06:16:59;;;;;;;7.05;3.75;;;24.10;54.90;;;;;;5014526;28;20748;-59
2021/06/18 06:19:25;;;;;;;12.93;3.90;;;24.10;55.20;;;;;;5014456;28;20388;-59
2021/06/18 06:21:50;;;;;;;6.93;3.60;;;24.10;55.00;;;;;;5014509;28;20384;-59
2021/06/18 06:24:16;;;;;;;11.35;4.07;;;24.00;54.60;;;;;;5013676;28;20757;-59
2021/06/18 06:26:42;;;;;;;6.13;3.60;;;24.10;54.70;;;;;;5013034;28;20389;-59
2021/06/18 06:29:07;;;;;;;6.50;3.55;;;24.10;54.60;;;;;;5014070;28;20450;-60
2021/06/18 06:31:33;;;;;;;7.17;3.80;;;24.10;54.60;;;;;;5011969;28;20922;-59
2021/06/18 06:33:59;;;;;;;8.70;3.80;;;24.10;54.80;;;;;;5013369;28;20404;-59
2021/06/18 06:36:25;;;;;;;6.13;3.50;;;24.10;54.80;;;;;;5013820;28;20391;-59
2021/06/18 06:38:51;;;;;;;6.47;3.70;;;24.10;54.90;;;;;;5012890;28;20408;-60
2021/06/18 06:41:17;;;;;;;6.68;3.75;;;24.10;54.90;;;;;;5014114;28;20447;-59
2021/06/18 06:43:42;;;;;;;5.23;3.70;;;24.10;54.80;;;;;;5014126;28;20461;-59
2021/06/18 06:46:08;;;;;;;6.18;3.47;;;24.10;55.00;;;;;;5013703;28;20415;-59
2021/06/18 06:48:34;;;;;;;4.70;3.30;;;24.10;54.80;;;;;;5013691;28;20459;-60
2021/06/18 06:50:59;;;;;;;6.05;3.63;;;24.20;54.60;;;;;;5013717;28;20681;-60
2021/06/18 06:53:25;;;;;;;6.37;3.57;;;24.20;54.90;;;;;;5013409;28;20500;-60
2021/06/18 06:55:51;;;;;;;5.57;3.47;;;24.20;54.90;;;;;;5013797;28;20400;-60
2021/06/18 06:58:16;;;;;;;4.45;3.40;;;24.20;54.90;;;;;;5013179;28;20413;-59
2021/06/18 07:00:42;;;;;;;5.90;3.63;;;24.20;54.90;;;;;;5013860;28;20428;-60
2021/06/18 07:03:08;;;;;;;5.00;3.72;;;24.20;54.80;;;;;;5013600;28;20387;-60
2021/06/18 07:05:33;;;;;;;5.23;3.50;;;24.20;54.90;;;;;;5012347;28;20401;-60
2021/06/18 07:07:59;;;;;;;5.32;3.70;;;24.20;54.90;;;;;;5013396;28;20425;-59
2021/06/18 07:10:25;;;;;;;5.70;3.40;;;24.20;54.80;;;;;;5012057;28;20389;-59
2021/06/18 07:12:50;;;;;;;5.07;3.80;;;24.20;54.80;;;;;;5013585;28;20427;-59
2021/06/18 07:15:16;;;;;;;4.80;3.30;;;24.30;55.40;;;;;;5012284;28;20523;-60
2021/06/18 07:17:42;;;;;;;5.10;3.30;;;24.20;54.90;;;;;;5013370;28;20475;-60
2021/06/18 07:20:08;;;;;;;4.93;3.47;;;24.20;54.70;;;;;;5011754;28;20873;-59
2021/06/18 07:22:34;;;;;;;5.80;3.47;;;24.30;54.80;;;;;;5012887;28;20393;-59
2021/06/18 07:25:00;;;;;;;4.22;3.30;;;24.30;54.80;;;;;;5013430;28;20420;-60
2021/06/18 07:27:26;;;;;;;4.93;3.47;;;24.30;54.80;;;;;;5012953;28;20459;-59
2021/06/18 07:29:53;;;;;;;4.45;3.33;;;24.30;54.80;;;;;;5013236;28;20451;-59
2021/06/18 07:32:19;;;;;;;5.03;3.50;;;24.30;54.80;;;;;;5012659;28;20841;-60
2021/06/18 07:34:45;;;;;;;6.00;3.40;;;24.30;54.80;;;;;;5013147;28;20396;-60
2021/06/18 07:37:11;;;;;;;4.15;3.20;;;24.30;54.60;;;;;;5013088;28;20424;-59
2021/06/18 07:39:36;;;;;;;3.40;3.10;;;24.30;54.60;;;;;;5011574;28;20389;-59
2021/06/18 07:42:02;;;;;;;3.97;3.58;;;24.30;54.60;;;;;;5012443;28;20873;-60
2021/06/18 07:44:28;;;;;;;4.73;3.50;;;24.30;54.50;;;;;;5011707;28;20909;-60
2021/06/18 07:46:53;;;;;;;4.60;3.10;;;24.30;54.60;;;;;;5013027;28;20479;-60
2021/06/18 07:49:19;;;;;;;4.47;3.40;;;24.30;54.50;;;;;;5012771;28;20823;-59
2021/06/18 07:51:45;;;;;;;4.20;3.22;;;24.30;54.50;;;;;;5012618;28;20662;-60
2021/06/18 07:54:10;;;;;;;5.22;3.10;;;24.30;54.50;;;;;;5012543;28;20388;-59
2021/06/18 07:56:43;;;;;;;4.77;3.37;;;24.30;54.50;;;;;;5012403;28;20397;-59
2021/06/18 07:59:09;;;;;;;4.05;3.20;;;24.30;54.50;;;;;;5012692;28;20389;-60
2021/06/18 08:01:34;;;;;;;4.43;3.30;;;24.30;54.80;;;;;;5012605;28;20472;-59
2021/06/18 08:04:06;;;;;;;4.25;3.40;;;24.30;54.30;;;;;;5101090;27;20361;-60
2021/06/18 08:06:33;;;;;;;4.70;3.33;;;24.30;54.30;;;;;;5068616;28;20754;-61
2021/06/18 08:08:59;;;;;;;3.85;3.20;;;24.30;54.30;;;;;;5068790;28;20396;-61
2021/06/18 08:11:24;;;;;;;4.63;3.70;;;24.30;54.30;;;;;;5068717;28;20391;-61
2021/06/18 08:13:50;;;;;;;4.60;3.40;;;24.30;54.20;;;;;;5068634;28;20942;-60
2021/06/18 08:16:16;;;;;;;3.50;3.00;;;24.30;54.10;;;;;;5068225;28;20389;-60
2021/06/18 08:18:41;;;;;;;3.53;3.13;;;24.30;54.20;;;;;;5068547;28;20389;-60
2021/06/18 08:21:09;;;;;;;4.30;3.23;;;24.30;54.10;;;;;;5068625;28;20512;-60
2021/06/18 08:23:36;;;;;;;4.10;3.13;;;24.40;54.00;;;;;;5067652;28;20504;-60
2021/06/18 08:26:02;;;;;;;3.35;3.05;;;24.30;53.90;;;;;;5068321;28;20892;-60
2021/06/18 08:28:28;;;;;;;3.80;3.25;;;24.40;53.80;;;;;;5068244;28;20392;-60
2021/06/18 08:30:53;;;;;;;3.42;3.13;;;24.40;53.90;;;;;;5068394;28;20764;-60
2021/06/18 08:33:19;;;;;;;3.83;2.95;;;24.40;53.90;;;;;;5068210;28;20496;-60
2021/06/18 08:35:46;;;;;;;3.58;3.28;;;24.40;53.90;;;;;;5068124;28;20461;-60
2021/06/18 08:38:11;;;;;;;3.70;2.90;;;24.40;53.80;;;;;;5068027;28;20881;-60
2021/06/18 08:40:37;;;;;;;3.35;3.05;;;24.40;53.40;;;;;;5067937;28;20454;-60
2021/06/18 08:43:05;;;;;;;3.53;3.10;;;24.30;53.40;;;;;;5068063;28;20505;-60
2021/06/18 08:45:31;;;;;;;3.47;2.90;;;24.40;53.50;;;;;;5068081;28;20392;-60
2021/06/18 08:47:58;;;;;;;3.85;3.08;;;24.40;53.50;;;;;;5066768;28;20436;-60
2021/06/18 08:50:24;;;;;;;3.50;2.88;;;24.40;53.80;;;;;;5067421;28;20944;-61
2021/06/18 08:52:52;;;;;;;3.40;3.10;;;24.40;53.50;;;;;;5067673;28;20869;-60
2021/06/18 08:55:20;;;;;;;3.20;2.90;;;24.40;53.50;;;;;;5067923;28;20393;-60
2021/06/18 08:57:54;;;;;;;3.63;3.20;;;24.40;53.40;;;;;;5067797;28;20400;-60
2021/06/18 09:00:24;;;;;;;3.42;3.13;;;24.40;53.30;;;;;;5067336;28;20417;-61
2021/06/18 09:02:49;;;;;;;3.10;2.80;;;24.40;53.50;;;;;;5067397;28;20408;-60
2021/06/18 09:05:16;;;;;;;3.78;3.30;;;24.40;53.90;;;;;;5067611;28;20395;-60
2021/06/18 09:07:59;;;;;;;3.30;3.00;;;24.40;53.40;;;;;;5066341;28;20904;-60
2021/06/18 09:10:44;;;;;;;4.15;3.40;;;24.40;53.30;;;;;;5065699;28;20975;-60
2021/06/18 09:13:30;;;;;;;3.50;3.20;;;24.40;53.30;;;;;;5067505;28;20420;-60
2021/06/18 09:15:58;;;;;;;4.00;3.25;;;24.40;53.40;;;;;;5052937;28;20413;-60
2021/06/18 09:18:26;;;;;;;3.30;3.00;;;24.40;53.30;;;;;;5052384;28;20515;-61
2021/06/18 09:21:12;;;;;;;3.70;3.22;;;24.40;53.30;;;;;;5054114;28;20393;-60
2021/06/18 09:23:41;;;;;;;3.38;3.00;;;24.40;53.20;;;;;;5054004;28;20424;-60
2021/06/18 09:26:48;;;;;;;3.50;3.20;;;24.40;53.20;;;;;;5053837;28;20833;-60
2021/06/18 09:29:21;;;;;;;3.50;3.20;;;24.40;53.20;;;;;;5041700;28;20406;-61
2021/06/18 09:32:00;;;;;;;4.03;3.20;;;24.40;53.20;;;;;;5054163;28;20400;-60
2021/06/18 09:34:42;;;;;;;3.20;2.90;;;24.40;53.10;;;;;;5053637;28;21026;-61
2021/06/18 09:37:27;;;;;;;3.50;3.20;;;24.40;53.10;;;;;;5053974;28;20498;-60
2021/06/18 09:39:56;;;;;;;3.38;3.08;;;24.40;53.10;;;;;;5053801;28;20438;-60
2021/06/18 09:42:25;;;;;;;3.67;3.20;;;24.40;53.00;;;;;;5053169;28;20897;-61
2021/06/18 09:45:08;;;;;;;3.50;3.20;;;24.40;53.00;;;;;;5053783;28;20765;-60
2021/06/18 09:47:35;;;;;;;4.00;3.20;;;24.40;53.00;;;;;;5053485;28;20746;-60
2021/06/18 09:50:03;;;;;;;3.40;3.10;;;24.40;53.00;;;;;;5053617;28;20412;-60
2021/06/18 09:52:28;;;;;;;3.83;3.10;;;24.40;52.90;;;;;;5053062;28;20496;-60
2021/06/18 09:54:54;;;;;;;3.35;3.05;;;24.40;53.00;;;;;;5052993;28;20531;-60
2021/06/18 09:57:35;;;;;;;3.33;3.03;;;24.40;52.90;;;;;;5053305;28;20385;-61
2021/06/18 10:00:05;;;;;;;3.63;3.33;;;24.40;53.00;;;;;;5053375;28;20377;-60
2021/06/18 10:02:37;;;;;;;3.75;3.33;;;24.40;53.00;;;;;;5052731;28;20516;-61
2021/06/18 10:05:08;;;;;;;3.83;3.42;;;24.40;52.90;;;;;;5053174;28;20385;-60
2021/06/18 10:07:34;;;;;;;3.70;3.40;;;24.40;52.90;;;;;;5053155;28;20771;-60
2021/06/18 10:10:21;;;;;;;3.50;3.20;;;24.40;52.90;;;;;;5052990;28;20400;-61
2021/06/18 10:12:48;;;;;;;3.70;3.40;;;24.40;53.00;;;;;;5051771;28;20515;-60
2021/06/18 10:15:20;;;;;;;3.38;3.08;;;24.40;53.00;;;;;;5053050;28;20398;-60
2021/06/18 10:17:48;;;;;;;3.70;3.40;;;24.40;52.90;;;;;;5053061;28;20381;-60
2021/06/18 10:20:16;;;;;;;3.55;3.25;;;24.40;53.00;;;;;;5052843;28;20399;-61
2021/06/18 10:23:03;;;;;;;3.65;3.35;;;24.40;52.80;;;;;;5052725;28;20425;-61
2021/06/18 10:25:43;;;;;;;4.15;3.47;;;24.40;53.00;;;;;;5052053;28;20389;-60
2021/06/18 10:28:17;;;;;;;3.75;3.42;;;24.40;53.10;;;;;;5052673;28;20393;-61
2021/06/18 10:30:48;;;;;;;3.85;3.35;;;24.40;53.00;;;;;;5052770;28;20416;-60
2021/06/18 10:33:26;;;;;;;3.50;3.20;;;24.40;52.90;;;;;;5052713;28;20388;-61
2021/06/18 10:35:59;;;;;;;3.67;3.37;;;24.40;53.00;;;;;;5052796;28;20442;-60
2021/06/18 10:38:34;;;;;;;3.78;3.47;;;24.40;52.90;;;;;;5052353;28;20378;-60
2021/06/18 10:41:20;;;;;;;3.70;3.40;;;24.40;53.00;;;;;;5052663;28;20400;-60
2021/06/18 10:43:49;;;;;;;3.63;3.30;;;24.40;53.10;;;;;;5052340;28;20425;-61
2021/06/18 10:46:18;;;;;;;4.00;3.60;;;24.40;53.00;;;;;;5052256;28;20384;-60
2021/06/18 10:48:46;;;;;;;3.60;3.30;;;24.40;53.20;;;;;;5052291;28;20482;-60
2021/06/18 10:51:32;;;;;;;3.60;3.30;;;24.40;53.00;;;;;;5052330;28;20741;-60
2021/06/18 10:54:26;;;;;;;3.43;3.13;;;24.50;53.00;;;;;;5052561;28;20480;-60
2021/06/18 10:57:00;;;;;;;3.53;3.22;;;24.40;52.90;;;;;;5052437;28;20393;-60
2021/06/18 10:59:28;;;;;;;3.45;3.15;;;24.40;53.00;;;;;;5052199;28;20404;-61
2021/06/18 11:01:55;;;;;;;3.37;3.00;;;24.40;52.80;;;;;;5052246;28;20450;-61
2021/06/18 11:04:46;;;;;;;3.80;3.50;;;24.40;52.80;;;;;;5051978;28;20812;-61
2021/06/18 11:07:26;;;;;;;3.65;3.35;;;24.40;52.90;;;;;;5052101;28;20832;-60
2021/06/18 11:09:56;;;;;;;4.72;3.40;;;24.40;52.90;;;;;;5051445;28;20389;-60
2021/06/18 11:12:29;;;;;;;5.50;3.43;;;24.40;52.80;;;;;;5051537;28;20419;-60
2021/06/18 11:15:04;;;;;;;3.85;3.53;;;24.40;53.50;;;;;;5051886;28;20435;-60
2021/06/18 11:17:52;;;;;;;5.68;3.40;;;24.40;54.20;;;;;;5051916;28;20386;-60
2021/06/18 11:20:19;;;;;;;4.10;3.70;;;24.50;53.60;;;;;;5051494;28;20374;-60
2021/06/18 11:22:48;;;;;;;6.68;3.60;;;24.50;53.50;;;;;;5051642;28;20915;-60
2021/06/18 11:25:36;;;;;;;3.80;3.50;;;24.50;53.40;;;;;;5051875;28;20386;-61
2021/06/18 11:28:31;;;;;;;3.80;3.40;;;24.50;54.00;;;;;;5051719;28;20385;-60
2021/06/18 11:31:08;;;;;;;5.15;3.42;;;24.60;54.00;;;;;;5051580;28;20385;-60
2021/06/18 11:33:37;;;;;;;5.00;3.80;;;24.60;53.40;;;;;;5051623;28;21199;-60
2021/06/18 11:36:06;;;;;;;3.60;3.30;;;24.60;53.20;;;;;;5051839;28;20432;-61
2021/06/18 11:38:32;;;;;;;3.78;3.30;;;24.50;53.20;;;;;;5050926;28;20869;-60
2021/06/18 11:41:00;;;;;;;4.40;3.50;;;24.60;53.30;;;;;;5051581;28;20409;-60
2021/06/18 11:43:27;;;;;;;4.10;3.50;;;24.50;53.30;;;;;;5051516;28;20989;-60
2021/06/18 11:45:53;;;;;;;4.00;3.70;;;24.60;53.10;;;;;;5051557;28;20400;-60
2021/06/18 11:48:19;;;;;;;3.95;3.55;;;24.60;53.10;;;;;;5051261;28;20481;-61
2021/06/18 11:50:46;;;;;;;3.95;3.50;;;24.60;53.20;;;;;;5051268;28;20393;-60
2021/06/18 11:53:13;;;;;;;6.30;3.60;;;24.60;53.10;;;;;;5051970;28;20390;-60
2021/06/18 11:55:39;;;;;;;3.90;3.40;;;24.50;53.00;;;;;;5051472;28;20755;-60
2021/06/18 11:58:05;;;;;;;4.13;3.50;;;24.60;53.10;;;;;;5051421;28;20463;-60
2021/06/18 12:00:32;;;;;;;4.20;3.42;;;24.60;53.40;;;;;;5049116;28;20961;-60
2021/06/18 12:02:58;;;;;;;5.05;3.58;;;24.60;53.50;;;;;;5050958;28;20936;-61
2021/06/18 12:05:32;;;;;;;6.75;3.67;;;24.60;53.00;;;;;;5051441;28;20478;-61
2021/06/18 12:07:59;;;;;;;8.05;4.70;;;24.60;53.50;;;;;;5051376;28;20451;-60
2021/06/18 12:10:29;;;;;;;5.68;3.83;;;24.60;54.50;;;;;;5050704;28;20435;-61
2021/06/18 12:12:57;;;;;;;8.02;4.40;;;24.70;54.70;;;;;;5051283;28;20766;-61
2021/06/18 12:15:29;;;;;;;6.03;4.28;;;24.70;54.60;;;;;;5051176;28;20404;-61
2021/06/18 12:17:57;;;;;;;6.55;4.38;;;24.70;54.70;;;;;;5051249;28;20404;-60
2021/06/18 12:20:43;;;;;;;8.07;4.10;;;24.70;54.30;;;;;;5050794;28;20465;-62
2021/06/18 12:23:15;;;;;;;7.17;4.10;;;24.70;54.40;;;;;;5050916;28;20464;-61
2021/06/18 12:25:41;;;;;;;9.35;4.20;;;24.70;54.20;;;;;;5051121;28;20447;-60
2021/06/18 12:28:08;;;;;;;10.63;4.82;;;24.80;55.40;;;;;;5051156;28;20776;-60
2021/06/18 12:30:37;;;;;;;7.85;4.35;;;24.80;57.60;;;;;;5050579;28;20396;-61
2021/06/18 12:33:05;;;;;;;11.20;4.78;;;24.80;58.70;;;;;;5050973;28;20390;-60
2021/06/18 12:35:39;;;;;;;8.35;4.32;;;24.90;58.40;;;;;;5050598;28;20458;-61
2021/06/18 12:38:07;;;;;;;7.07;4.13;;;24.90;57.60;;;;;;5050633;28;20488;-60
2021/06/18 12:40:33;;;;;;;5.85;4.18;;;24.90;58.50;;;;;;5045764;28;20472;-61
2021/06/18 12:43:11;;;;;;;7.45;4.20;;;24.90;58.90;;;;;;5042260;28;20488;-61
2021/06/18 12:45:59;;;;;;;7.80;4.20;;;25.00;57.80;;;;;;4978481;28;20394;-62
2021/06/18 12:48:29;;;;;;;8.02;4.45;;;25.00;59.00;;;;;;5004421;28;20419;-61
2021/06/18 12:51:00;;;;;;;6.77;4.50;;;25.00;57.70;;;;;;5014236;28;20389;-60
2021/06/18 12:53:39;;;;;;;8.13;4.40;;;25.00;57.30;;;;;;5014780;28;20407;-60
2021/06/18 12:56:12;;;;;;;6.75;4.10;;;25.00;57.40;;;;;;4991299;28;20424;-61